createdAt,value
2018-04-23T00:02:07.175Z,98.30
2018-04-23T00:04:34.759Z,97.99
2018-04-23T00:07:02.340Z,98.12
2018-04-23T00:09:30.149Z,98.47
2018-04-23T00:11:57.707Z,98.60
2018-04-23T00:14:25.479Z,98.71
2018-04-23T00:16:53.087Z,98.90
2018-04-23T00:19:20.808Z,98.67
2018-04-23T00:21:48.380Z,98.97
2018-04-23T00:24:16.108Z,99.16
2018-04-23T00:26:43.686Z,99.42
2018-04-23T00:29:11.243Z,99.24
2018-04-23T00:31:38.822Z,99.59
2018-04-23T00:34:06.380Z,99.60
2018-04-23T00:36:33.945Z,99.46
2018-04-23T00:39:01.701Z,99.56
2018-04-23T00:41:29.282Z,99.91
2018-04-23T00:43:56.859Z,99.96
2018-04-23T00:46:24.542Z,100.00
2018-04-23T00:48:52.130Z,100.00
2018-04-23T00:51:19.813Z,100.00
2018-04-23T00:53:47.431Z,100.00
2018-04-23T00:56:15.103Z,100.00
2018-04-23T00:58:42.663Z,100.00
2018-04-23T01:01:10.342Z,100.00
2018-04-23T01:03:37.903Z,100.00
2018-04-23T01:06:05.577Z,100.00
2018-04-23T01:08:33.184Z,99.89
2018-04-23T01:11:00.783Z,100.00
2018-04-23T01:13:28.351Z,100.00
2018-04-23T01:15:55.989Z,99.80
2018-04-23T01:18:23.679Z,100.00
2018-04-23T01:20:51.527Z,100.00
2018-04-23T01:23:19.116Z,100.00
2018-04-23T01:25:46.665Z,100.00
2018-04-23T01:28:14.243Z,100.00
2018-04-23T01:30:41.838Z,100.00
2018-04-23T01:33:09.450Z,100.00
2018-04-23T01:35:37.012Z,100.00
2018-04-23T01:38:04.653Z,100.00
2018-04-23T01:40:32.250Z,100.00
2018-04-23T01:42:59.879Z,100.00
2018-04-23T01:45:27.489Z,99.76
2018-04-23T01:47:55.205Z,99.83
2018-04-23T01:50:33.481Z,99.92
2018-04-23T01:53:01.145Z,99.48
2018-04-23T01:55:28.720Z,99.36
2018-04-23T01:57:56.324Z,98.96
2018-04-23T02:00:23.894Z,98.08
2018-04-23T02:02:51.490Z,97.67
2018-04-23T02:05:19.088Z,97.48
2018-04-23T02:07:46.730Z,97.22
2018-04-23T02:10:14.297Z,97.07
2018-04-23T02:12:41.906Z,96.37
2018-04-23T02:15:09.472Z,96.29
2018-04-23T02:17:37.042Z,96.45
2018-04-23T02:20:04.634Z,96.46
2018-04-23T02:22:32.199Z,96.38
2018-04-23T02:24:59.752Z,96.41
2018-04-23T02:27:27.428Z,96.45
2018-04-23T02:29:55.016Z,96.71
2018-04-23T02:32:22.750Z,96.85
2018-04-23T02:34:50.370Z,96.97
2018-04-23T02:37:17.932Z,97.39
2018-04-23T02:39:45.575Z,97.80
2018-04-23T02:42:13.415Z,98.08
2018-04-23T02:44:40.974Z,98.38
2018-04-23T02:47:08.725Z,98.62
2018-04-23T02:49:36.407Z,98.82
2018-04-23T02:52:03.988Z,98.66
2018-04-23T02:54:31.551Z,99.05
2018-04-23T02:56:59.155Z,98.95
2018-04-23T02:59:26.729Z,99.17
2018-04-23T03:01:54.289Z,99.07
2018-04-23T03:04:21.946Z,98.90
2018-04-23T03:06:49.496Z,98.81
2018-04-23T03:09:17.066Z,99.22
2018-04-23T03:11:44.671Z,98.65
2018-04-23T03:14:12.235Z,98.21
2018-04-23T03:16:39.837Z,98.10
2018-04-23T03:19:07.714Z,98.31
2018-04-23T03:21:35.378Z,98.30
2018-04-23T03:24:03.035Z,97.94
2018-04-23T03:26:30.635Z,97.84
2018-04-23T03:28:58.218Z,97.84
2018-04-23T03:31:25.829Z,97.30
2018-04-23T03:33:53.508Z,97.11
2018-04-23T03:36:21.168Z,96.34
2018-04-23T03:38:48.830Z,95.54
2018-04-23T03:41:16.455Z,95.70
2018-04-23T03:43:44.030Z,95.56
2018-04-23T03:46:11.798Z,95.23
2018-04-23T03:48:39.422Z,94.40
2018-04-23T03:51:06.984Z,94.11
2018-04-23T03:53:34.797Z,93.88
2018-04-23T03:56:02.409Z,86.27
2018-04-23T03:58:29.996Z,80.61
2018-04-23T04:00:57.583Z,74.29
2018-04-23T04:03:25.246Z,69.31
2018-04-23T04:05:52.906Z,64.81
2018-04-23T04:08:20.483Z,61.74
2018-04-23T04:10:48.219Z,59.18
2018-04-23T04:13:27.449Z,55.04
2018-04-23T04:16:06.904Z,52.82
2018-04-23T04:18:45.614Z,51.13
2018-04-23T04:21:13.278Z,48.79
2018-04-23T04:23:40.865Z,47.31
2018-04-23T04:26:09.659Z,46.59
2018-04-23T04:28:37.284Z,44.97
2018-04-23T04:31:04.891Z,43.56
2018-04-23T04:33:32.481Z,42.05
2018-04-23T04:36:00.110Z,42.75
2018-04-23T04:38:27.692Z,40.75
2018-04-23T04:40:55.273Z,40.87
2018-04-23T04:43:23.069Z,41.99
2018-04-23T04:45:50.676Z,41.86
2018-04-23T04:48:18.258Z,41.74
2018-04-23T04:50:45.885Z,40.03
2018-04-23T04:53:13.540Z,38.66
2018-04-23T04:55:41.141Z,39.17
2018-04-23T04:58:08.753Z,38.43
2018-04-23T05:00:36.340Z,37.77
2018-04-23T05:03:03.932Z,36.04
2018-04-23T05:05:31.559Z,34.86
2018-04-23T05:07:59.141Z,32.71
2018-04-23T05:10:26.770Z,33.19
2018-04-23T05:12:54.387Z,33.16
2018-04-23T05:15:21.976Z,31.79
2018-04-23T05:17:49.546Z,30.67
2018-04-23T05:20:17.165Z,32.47
2018-04-23T05:22:44.756Z,31.27
2018-04-23T05:25:12.348Z,32.55
2018-04-23T05:27:39.959Z,29.73
2018-04-23T05:30:07.531Z,31.41
2018-04-23T05:32:35.123Z,32.39
2018-04-23T05:35:02.748Z,31.82
2018-04-23T05:37:30.332Z,30.25
2018-04-23T05:39:58.275Z,30.62
2018-04-23T05:42:25.898Z,29.73
2018-04-23T05:44:53.473Z,30.64
2018-04-23T05:47:21.263Z,30.54
2018-04-23T05:49:49.115Z,30.38
2018-04-23T05:52:16.755Z,29.76
2018-04-23T05:54:44.439Z,30.04
2018-04-23T05:57:12.118Z,31.01
2018-04-23T05:59:39.769Z,29.26
2018-04-23T06:02:07.440Z,29.05
2018-04-23T06:04:35.087Z,27.18
2018-04-23T06:07:02.773Z,26.53
2018-04-23T06:09:30.367Z,27.70
2018-04-23T06:11:58.075Z,25.69
2018-04-23T06:14:25.690Z,25.41
2018-04-23T06:16:53.276Z,25.33
2018-04-23T06:19:20.876Z,26.32
2018-04-23T06:21:48.515Z,26.27
2018-04-23T06:24:16.092Z,26.28
2018-04-23T06:26:43.709Z,26.55
2018-04-23T06:29:11.293Z,27.49
2018-04-23T06:31:38.868Z,27.29
2018-04-23T06:34:06.487Z,26.37
2018-04-23T06:36:34.077Z,26.37
2018-04-23T06:39:01.683Z,26.37
2018-04-23T06:41:29.300Z,27.50
2018-04-23T06:43:56.875Z,28.64
2018-04-23T06:46:24.448Z,27.15
2018-04-23T06:48:52.064Z,26.79
2018-04-23T06:51:19.643Z,26.84
2018-04-23T06:53:47.221Z,27.28
2018-04-23T06:56:14.831Z,26.64
2018-04-23T06:58:42.445Z,27.28
2018-04-23T07:01:10.022Z,27.30
2018-04-23T07:03:37.635Z,26.65
2018-04-23T07:06:05.209Z,26.79
2018-04-23T07:08:32.789Z,26.16
2018-04-23T07:11:00.399Z,25.72
2018-04-23T07:13:27.975Z,26.11
2018-04-23T07:15:55.553Z,26.48
2018-04-23T07:18:23.170Z,25.66
2018-04-23T07:20:50.737Z,27.50
2018-04-23T07:23:18.362Z,27.18
2018-04-23T07:25:46.102Z,27.25
2018-04-23T07:28:13.678Z,27.01
2018-04-23T07:30:41.262Z,25.79
2018-04-23T07:33:08.871Z,25.86
2018-04-23T07:35:36.456Z,25.80
2018-04-23T07:38:04.051Z,25.54
2018-04-23T07:40:31.673Z,25.21
2018-04-23T07:42:59.270Z,25.44
2018-04-23T07:45:26.847Z,25.83
2018-04-23T07:47:54.507Z,23.95
2018-04-23T07:50:22.070Z,24.13
2018-04-23T07:52:49.652Z,23.80
2018-04-23T07:55:17.249Z,21.48
2018-04-23T07:57:44.827Z,20.85
2018-04-23T08:00:12.416Z,20.04
2018-04-23T08:02:40.032Z,19.83
2018-04-23T08:05:07.614Z,18.81
2018-04-23T08:07:35.192Z,19.23
2018-04-23T08:10:02.817Z,18.51
2018-04-23T08:12:30.401Z,20.19
2018-04-23T08:14:57.989Z,19.08
2018-04-23T08:17:25.693Z,18.52
2018-04-23T08:19:53.275Z,19.82
2018-04-23T08:22:20.857Z,19.09
2018-04-23T08:24:48.482Z,20.18
2018-04-23T08:27:16.072Z,18.73
2018-04-23T08:29:43.651Z,18.27
2018-04-23T08:32:11.255Z,18.85
2018-04-23T08:34:38.827Z,18.85
2018-04-23T08:37:06.408Z,17.89
2018-04-23T08:39:34.034Z,17.68
2018-04-23T08:42:01.639Z,20.40
2018-04-23T08:44:29.219Z,18.03
2018-04-23T08:46:56.920Z,19.67
2018-04-23T08:49:24.512Z,20.80
2018-04-23T08:51:52.095Z,19.77
2018-04-23T08:54:19.712Z,19.83
2018-04-23T08:56:47.292Z,18.79
2018-04-23T08:59:14.874Z,18.23
2018-04-23T09:01:42.494Z,18.67
2018-04-23T09:04:10.070Z,18.12
2018-04-23T09:06:37.648Z,20.37
2018-04-23T09:09:06.133Z,18.46
2018-04-23T09:11:33.712Z,18.59
2018-04-23T09:14:01.287Z,17.85
2018-04-23T09:16:28.913Z,17.91
2018-04-23T09:18:56.488Z,17.84
2018-04-23T09:21:24.099Z,16.81
2018-04-23T09:23:51.707Z,16.77
2018-04-23T09:26:19.295Z,18.58
2018-04-23T09:28:46.875Z,18.00
2018-04-23T09:31:14.532Z,17.98
2018-04-23T09:33:42.114Z,18.67
2018-04-23T09:36:09.701Z,17.54
2018-04-23T09:38:37.340Z,17.58
2018-04-23T09:41:04.925Z,17.29
2018-04-23T09:43:32.491Z,16.45
2018-04-23T09:46:00.120Z,17.88
2018-04-23T09:48:27.713Z,17.67
2018-04-23T09:50:55.321Z,17.27
2018-04-23T09:53:22.922Z,17.15
2018-04-23T09:55:50.522Z,18.31
2018-04-23T09:58:18.381Z,18.20
2018-04-23T10:00:46.080Z,19.79
2018-04-23T10:03:13.653Z,18.68
2018-04-23T10:05:41.242Z,17.21
2018-04-23T10:08:08.855Z,19.52
2018-04-23T10:10:36.428Z,18.90
2018-04-23T10:13:04.075Z,19.92
2018-04-23T10:15:31.689Z,18.80
2018-04-23T10:17:59.268Z,19.56
2018-04-23T10:20:27.043Z,18.08
2018-04-23T10:22:54.719Z,21.00
2018-04-23T10:25:22.279Z,18.72
2018-04-23T10:27:49.851Z,17.47
2018-04-23T10:30:17.490Z,18.35
2018-04-23T10:32:45.215Z,18.26
2018-04-23T10:35:12.843Z,18.14
2018-04-23T10:37:40.698Z,17.74
2018-04-23T10:40:08.275Z,18.14
2018-04-23T10:42:36.024Z,17.67
2018-04-23T10:45:03.874Z,17.29
2018-04-23T10:47:31.448Z,20.81
2018-04-23T10:49:59.020Z,21.25
2018-04-23T10:52:26.617Z,19.02
2018-04-23T10:54:54.182Z,19.33
2018-04-23T10:57:21.824Z,20.32
2018-04-23T10:59:49.642Z,19.84
2018-04-23T11:02:17.223Z,19.27
2018-04-23T11:04:44.981Z,19.60
2018-04-23T11:07:12.586Z,18.92
2018-04-23T11:09:40.242Z,18.40
2018-04-23T11:12:07.764Z,19.48
2018-04-23T11:14:35.488Z,17.65
2018-04-23T11:17:03.453Z,18.04
2018-04-23T11:19:31.158Z,18.18
2018-04-23T11:24:32.489Z,18.79
2018-04-23T11:27:00.291Z,16.78
2018-04-23T11:29:27.925Z,16.33
2018-04-23T11:31:55.716Z,15.23
2018-04-23T11:34:23.465Z,15.37
2018-04-23T11:36:51.061Z,16.48
2018-04-23T11:39:18.635Z,15.08
2018-04-23T11:41:46.478Z,14.67
2018-04-23T11:44:14.061Z,15.05
2018-04-23T11:46:41.779Z,16.03
2018-04-23T11:49:09.393Z,16.77
2018-04-23T11:51:36.985Z,17.37
2018-04-23T11:54:04.788Z,16.10
2018-04-23T11:56:32.408Z,17.60
2018-04-23T11:59:00.106Z,19.39
2018-04-23T12:01:27.768Z,18.64
2018-04-23T12:03:55.373Z,16.77
2018-04-23T12:06:22.957Z,16.43
2018-04-23T12:08:50.527Z,15.95
2018-04-23T12:11:18.416Z,16.19
2018-04-23T12:13:46.077Z,17.20
2018-04-23T12:16:13.794Z,18.79
2018-04-23T12:18:41.386Z,16.87
2018-04-23T12:21:08.965Z,19.34
2018-04-23T12:23:36.540Z,19.58
2018-04-23T12:26:04.149Z,19.53
2018-04-23T12:28:31.719Z,17.83
2018-04-23T12:30:59.303Z,18.68
2018-04-23T12:33:26.928Z,16.25
2018-04-23T12:35:54.505Z,16.93
2018-04-23T12:38:22.149Z,19.22
2018-04-23T12:40:49.811Z,20.29
2018-04-23T12:43:17.383Z,20.18
2018-04-23T12:45:44.941Z,18.80
2018-04-23T12:48:12.649Z,19.00
2018-04-23T12:50:40.232Z,19.96
2018-04-23T12:53:07.799Z,20.99
2018-04-23T12:55:35.422Z,20.28
2018-04-23T12:58:03.000Z,18.74
2018-04-23T13:00:30.570Z,20.83
2018-04-23T13:02:58.189Z,22.05
2018-04-23T13:05:25.769Z,23.48
2018-04-23T13:07:53.353Z,24.51
2018-04-23T13:10:20.956Z,25.22
2018-04-23T13:12:48.533Z,26.18
2018-04-23T13:15:16.110Z,25.78
2018-04-23T13:17:43.716Z,27.31
2018-04-23T13:20:11.301Z,26.67
2018-04-23T13:22:38.927Z,25.87
2018-04-23T13:25:06.520Z,26.51
2018-04-23T13:27:34.075Z,26.03
2018-04-23T13:30:01.649Z,25.46
2018-04-23T13:32:29.258Z,25.54
2018-04-23T13:34:56.826Z,26.12
2018-04-23T13:37:24.389Z,22.87
2018-04-23T13:39:52.032Z,22.44
2018-04-23T13:42:19.602Z,24.09
2018-04-23T13:44:47.166Z,24.16
2018-04-23T13:47:14.766Z,22.92
2018-04-23T13:49:42.314Z,23.08
2018-04-23T13:52:09.886Z,23.43
2018-04-23T13:54:37.473Z,24.45
2018-04-23T13:57:05.149Z,23.84
2018-04-23T13:59:32.742Z,23.24
2018-04-23T14:02:00.347Z,23.78
2018-04-23T14:04:27.911Z,23.82
2018-04-23T14:06:55.493Z,23.94
2018-04-23T14:09:23.072Z,24.16
2018-04-23T14:11:50.627Z,24.59
2018-04-23T14:14:18.182Z,24.11
2018-04-23T14:16:45.851Z,24.69
2018-04-23T14:19:13.420Z,24.76
2018-04-23T14:21:40.980Z,24.46
2018-04-23T14:24:08.575Z,24.95
2018-04-23T14:26:36.134Z,25.12
2018-04-23T14:29:03.701Z,25.90
2018-04-23T14:31:31.286Z,25.45
2018-04-23T14:33:58.859Z,25.14
2018-04-23T14:36:26.429Z,25.80
2018-04-23T14:38:54.045Z,25.87
2018-04-23T14:41:21.638Z,25.36
2018-04-23T14:43:49.205Z,25.05
2018-04-23T14:46:16.813Z,26.15
2018-04-23T14:48:44.387Z,24.69
2018-04-23T14:51:11.969Z,23.87
2018-04-23T14:53:39.570Z,24.52
2018-04-23T14:56:07.148Z,24.78
2018-04-23T14:58:34.816Z,25.24
2018-04-23T15:01:02.478Z,25.63
2018-04-23T15:03:30.077Z,26.44
2018-04-23T15:05:57.658Z,26.78
2018-04-23T15:08:25.303Z,27.14
2018-04-23T15:10:52.874Z,27.13
2018-04-23T15:13:20.438Z,26.12
2018-04-23T15:15:48.051Z,26.90
2018-04-23T15:18:15.615Z,26.37
2018-04-23T15:20:43.190Z,26.96
2018-04-23T15:23:10.816Z,28.30
2018-04-23T15:25:38.406Z,29.25
2018-04-23T15:28:05.981Z,29.82
2018-04-23T15:30:33.595Z,29.18
2018-04-23T15:33:01.187Z,30.01
2018-04-23T15:35:28.766Z,30.09
2018-04-23T15:37:56.372Z,30.87
2018-04-23T15:40:23.960Z,30.98
2018-04-23T15:42:51.545Z,31.59
2018-04-23T15:45:19.201Z,32.05
2018-04-23T15:47:46.779Z,31.40
2018-04-23T15:50:14.356Z,31.67
2018-04-23T15:52:41.982Z,31.99
2018-04-23T15:55:09.563Z,31.69
2018-04-23T15:57:37.139Z,32.84
2018-04-23T16:00:04.754Z,32.89
2018-04-23T16:02:32.348Z,32.87
2018-04-23T16:04:59.930Z,33.19
2018-04-23T16:07:27.540Z,32.96
2018-04-23T16:09:55.135Z,33.19
2018-04-23T16:12:22.724Z,33.16
2018-04-23T16:14:50.338Z,33.67
2018-04-23T16:17:17.911Z,33.84
2018-04-23T16:19:45.488Z,35.33
2018-04-23T16:22:13.090Z,36.30
2018-04-23T16:24:40.675Z,36.97
2018-04-23T16:27:08.262Z,37.77
2018-04-23T16:29:35.883Z,38.76
2018-04-23T16:32:03.462Z,40.15
2018-04-23T16:34:31.055Z,40.69
2018-04-23T16:36:58.664Z,41.18
2018-04-23T16:39:26.249Z,41.56
2018-04-23T16:41:53.831Z,42.36
2018-04-23T16:44:27.165Z,42.75
2018-04-23T16:46:49.076Z,44.22
2018-04-23T16:49:16.698Z,44.68
2018-04-23T16:51:44.318Z,44.72
2018-04-23T16:54:13.434Z,44.97
2018-04-23T16:56:41.030Z,45.65
2018-04-23T16:59:08.667Z,45.54
2018-04-23T17:01:36.240Z,46.33
2018-04-23T17:04:03.804Z,47.66
2018-04-23T17:06:31.414Z,47.63
2018-04-23T17:08:58.991Z,48.08
2018-04-23T17:11:26.601Z,48.93
2018-04-23T17:13:54.180Z,50.34
2018-04-23T17:16:21.800Z,51.35
2018-04-23T17:18:49.387Z,50.54
2018-04-23T17:21:16.974Z,51.22
2018-04-23T17:23:44.622Z,51.98
2018-04-23T17:26:12.319Z,52.08
2018-04-23T17:28:39.891Z,54.45
2018-04-23T17:31:08.415Z,53.97
2018-04-23T17:33:36.013Z,55.63
2018-04-23T17:36:03.590Z,57.72
2018-04-23T17:38:31.205Z,58.17
2018-04-23T17:40:58.784Z,57.24
2018-04-23T17:43:26.369Z,57.33
2018-04-23T17:45:53.988Z,58.20
2018-04-23T17:48:21.588Z,61.14
2018-04-23T17:50:49.163Z,58.57
2018-04-23T17:53:16.774Z,60.02
2018-04-23T17:55:44.353Z,60.73
2018-04-23T17:58:11.936Z,61.37
2018-04-23T18:00:39.598Z,62.64
2018-04-23T18:03:07.167Z,64.14
2018-04-23T18:05:34.738Z,63.25
2018-04-23T18:08:02.349Z,63.94
2018-04-23T18:10:29.944Z,61.16
2018-04-23T18:12:57.529Z,63.97
2018-04-23T18:15:25.161Z,65.81
2018-04-23T18:17:52.797Z,65.32
2018-04-23T18:20:20.385Z,66.79
2018-04-23T18:22:48.006Z,68.21
2018-04-23T18:25:15.588Z,68.79
2018-04-23T18:27:43.163Z,67.08
2018-04-23T18:30:10.785Z,68.56
2018-04-23T18:32:38.364Z,68.18
2018-04-23T18:35:05.998Z,68.43
2018-04-23T18:37:33.633Z,67.96
2018-04-23T18:40:01.225Z,70.06
2018-04-23T18:42:28.804Z,71.51
2018-04-23T18:44:56.401Z,71.12
2018-04-23T18:47:23.978Z,71.54
2018-04-23T18:49:51.574Z,69.54
2018-04-23T18:52:19.189Z,71.00
2018-04-23T18:54:46.774Z,72.01
2018-04-23T18:57:14.349Z,72.78
2018-04-23T18:59:41.956Z,72.86
2018-04-23T19:02:09.645Z,73.90
2018-04-23T19:04:37.264Z,72.51
2018-04-23T19:07:04.887Z,70.83
2018-04-23T19:09:32.486Z,72.51
2018-04-23T19:12:00.104Z,73.16
2018-04-23T19:14:27.728Z,75.06
2018-04-23T19:16:55.316Z,74.64
2018-04-23T19:19:22.905Z,73.77
2018-04-23T19:21:50.543Z,76.88
2018-04-23T19:24:18.176Z,77.19
2018-04-23T19:26:45.771Z,79.19
2018-04-23T19:29:13.390Z,78.91
2018-04-23T19:31:40.974Z,77.07
2018-04-23T19:34:08.596Z,74.39
2018-04-23T19:36:36.196Z,75.82
2018-04-23T19:39:03.865Z,76.31
2018-04-23T19:41:31.434Z,77.14
2018-04-23T19:43:59.050Z,78.44
2018-04-23T19:46:26.634Z,78.42
2018-04-23T19:48:54.206Z,79.63
2018-04-23T19:51:21.842Z,80.20
2018-04-23T19:53:49.413Z,81.03
2018-04-23T19:56:16.997Z,80.64
2018-04-23T19:58:44.615Z,81.62
2018-04-23T20:01:12.196Z,82.52
2018-04-23T20:03:39.760Z,82.48
2018-04-23T20:06:07.352Z,80.38
2018-04-23T20:08:34.934Z,82.96
2018-04-23T20:11:02.516Z,82.81
2018-04-23T20:13:30.421Z,82.83
2018-04-23T20:15:57.988Z,83.03
2018-04-23T20:18:25.555Z,83.50
2018-04-23T20:20:53.172Z,83.85
2018-04-23T20:23:20.805Z,84.51
2018-04-23T20:25:48.394Z,85.13
2018-04-23T20:28:16.013Z,84.40
2018-04-23T20:30:43.586Z,85.58
2018-04-23T20:33:11.160Z,84.91
2018-04-23T20:35:38.871Z,85.04
2018-04-23T20:38:06.700Z,84.93
2018-04-23T20:40:34.263Z,85.57
2018-04-23T20:43:02.021Z,86.73
2018-04-23T20:45:29.583Z,86.56
2018-04-23T20:47:57.154Z,84.46
2018-04-23T20:50:24.804Z,81.18
2018-04-23T20:52:52.386Z,77.65
2018-04-23T20:55:19.969Z,77.61
2018-04-23T20:57:47.600Z,75.64
2018-04-23T21:00:15.169Z,75.61
2018-04-23T21:02:42.755Z,75.33
2018-04-23T21:05:10.376Z,75.26
2018-04-23T21:07:37.951Z,75.32
2018-04-23T21:10:05.695Z,75.65
2018-04-23T21:12:33.316Z,76.11
2018-04-23T21:15:00.887Z,76.32
2018-04-23T21:17:28.662Z,76.23
2018-04-23T21:19:56.264Z,79.13
2018-04-23T21:22:24.253Z,80.13
2018-04-23T21:24:52.208Z,79.64
2018-04-23T21:27:19.931Z,80.70
2018-04-23T21:29:47.593Z,80.90
2018-04-23T21:32:15.172Z,81.76
2018-04-23T21:34:42.787Z,82.30
2018-04-23T21:37:10.585Z,82.99
2018-04-23T21:39:38.253Z,83.93
2018-04-23T21:42:05.862Z,84.90
2018-04-23T21:44:33.440Z,84.48
2018-04-23T21:47:01.017Z,85.20
2018-04-23T21:49:28.701Z,85.35
2018-04-23T21:51:56.352Z,85.92
2018-04-23T21:54:24.027Z,86.63
2018-04-23T21:56:51.668Z,87.61
2018-04-23T21:59:19.218Z,88.32
2018-04-23T22:01:46.792Z,88.59
2018-04-23T22:04:14.400Z,88.82
2018-04-23T22:06:41.984Z,88.30
2018-04-23T22:09:09.781Z,88.47
2018-04-23T22:11:37.362Z,88.74
2018-04-23T22:14:04.982Z,89.65
2018-04-23T22:16:32.774Z,90.29
2018-04-23T22:19:00.418Z,90.63
2018-04-23T22:21:27.983Z,91.38
2018-04-23T22:23:55.549Z,91.91
2018-04-23T22:26:23.164Z,92.41
2018-04-23T22:28:50.734Z,92.68
2018-04-23T22:31:18.535Z,92.80
2018-04-23T22:33:46.127Z,92.76
2018-04-23T22:36:13.699Z,93.02
2018-04-23T22:38:41.328Z,93.10
2018-04-23T22:41:08.985Z,93.57
2018-04-23T22:43:36.567Z,93.16
2018-04-23T22:46:04.154Z,92.88
2018-04-23T22:48:31.778Z,93.07
2018-04-23T22:50:59.351Z,93.17
2018-04-23T22:53:26.932Z,93.27
2018-04-23T22:55:54.557Z,93.74
2018-04-23T22:58:22.178Z,93.92
2018-04-23T23:00:49.760Z,93.80
2018-04-23T23:03:17.408Z,93.99
2018-04-23T23:05:45.001Z,93.86
2018-04-23T23:08:12.580Z,94.13
2018-04-23T23:10:40.212Z,94.29
2018-04-23T23:13:07.786Z,93.85
2018-04-23T23:15:35.374Z,93.78
2018-04-23T23:18:02.970Z,93.98
2018-04-23T23:20:30.543Z,94.09
2018-04-23T23:22:58.125Z,94.02
2018-04-23T23:25:25.875Z,94.63
2018-04-23T23:27:53.460Z,94.57
2018-04-23T23:30:21.191Z,94.28
2018-04-23T23:32:48.818Z,94.11
2018-04-23T23:35:16.408Z,94.39
2018-04-23T23:37:44.046Z,94.87
2018-04-23T23:40:11.664Z,95.23
2018-04-23T23:42:39.256Z,95.41
2018-04-23T23:45:06.845Z,95.79
2018-04-23T23:47:34.472Z,95.60
2018-04-23T23:50:02.081Z,95.72
2018-04-23T23:52:29.660Z,95.32
2018-04-23T23:54:57.286Z,94.02
2018-04-23T23:57:24.867Z,92.04
2018-04-23T23:59:52.544Z,91.71
